sensor_id;sensor_type;location;lat;lon;timestamp;P1;durP1;ratioP1;P2;durP2;ratioP2
52978;SDS011;63430;53.186;6.598;2023-01-28T00:01:07;6.70;;;5.30;;
52978;SDS011;63430;53.186;6.598;2023-01-28T00:03:12;6.50;;;5.18;;
52978;SDS011;63430;53.186;6.598;2023-01-28T00:05:16;6.20;;;5.00;;
52978;SDS011;63430;53.186;6.598;2023-01-28T00:07:19;7.00;;;5.13;;
52978;SDS011;63430;53.186;6.598;2023-01-28T00:09:22;7.40;;;5.32;;
52978;SDS011;63430;53.186;6.598;2023-01-28T00:11:25;6.85;;;4.88;;
52978;SDS011;63430;53.186;6.598;2023-01-28T00:13:27;7.60;;;4.90;;
52978;SDS011;63430;53.186;6.598;2023-01-28T00:15:32;7.05;;;5.40;;
52978;SDS011;63430;53.186;6.598;2023-01-28T00:17:35;6.95;;;5.72;;
52978;SDS011;63430;53.186;6.598;2023-01-28T00:19:40;10.15;;;6.03;;
52978;SDS011;63430;53.186;6.598;2023-01-28T00:21:43;7.18;;;5.85;;
52978;SDS011;63430;53.186;6.598;2023-01-28T00:23:47;6.38;;;5.30;;
52978;SDS011;63430;53.186;6.598;2023-01-28T00:25:53;6.22;;;5.10;;
52978;SDS011;63430;53.186;6.598;2023-01-28T00:27:58;7.68;;;5.70;;
52978;SDS011;63430;53.186;6.598;2023-01-28T00:30:01;5.95;;;4.93;;
52978;SDS011;63430;53.186;6.598;2023-01-28T00:32:04;6.20;;;5.45;;
52978;SDS011;63430;53.186;6.598;2023-01-28T00:34:07;8.63;;;5.97;;
52978;SDS011;63430;53.186;6.598;2023-01-28T00:36:13;7.35;;;6.07;;
52978;SDS011;63430;53.186;6.598;2023-01-28T00:38:16;8.25;;;6.07;;
52978;SDS011;63430;53.186;6.598;2023-01-28T00:40:19;11.95;;;5.82;;
52978;SDS011;63430;53.186;6.598;2023-01-28T00:42:22;7.55;;;5.68;;
52978;SDS011;63430;53.186;6.598;2023-01-28T00:44:25;7.25;;;5.22;;
52978;SDS011;63430;53.186;6.598;2023-01-28T00:46:28;8.15;;;6.15;;
52978;SDS011;63430;53.186;6.598;2023-01-28T00:48:30;6.88;;;5.45;;
52978;SDS011;63430;53.186;6.598;2023-01-28T00:50:33;9.02;;;6.40;;
52978;SDS011;63430;53.186;6.598;2023-01-28T00:52:38;7.95;;;5.95;;
52978;SDS011;63430;53.186;6.598;2023-01-28T00:54:41;10.65;;;6.50;;
52978;SDS011;63430;53.186;6.598;2023-01-28T00:56:44;7.20;;;5.95;;
52978;SDS011;63430;53.186;6.598;2023-01-28T00:58:46;8.43;;;5.88;;
52978;SDS011;63430;53.186;6.598;2023-01-28T01:00:49;7.47;;;5.90;;
52978;SDS011;63430;53.186;6.598;2023-01-28T01:02:51;9.25;;;6.55;;
52978;SDS011;63430;53.186;6.598;2023-01-28T01:04:55;8.05;;;5.93;;
52978;SDS011;63430;53.186;6.598;2023-01-28T01:07:01;5.65;;;4.63;;
52978;SDS011;63430;53.186;6.598;2023-01-28T01:09:06;5.15;;;4.43;;
52978;SDS011;63430;53.186;6.598;2023-01-28T01:11:11;6.20;;;5.43;;
52978;SDS011;63430;53.186;6.598;2023-01-28T01:13:14;5.32;;;4.80;;
52978;SDS011;63430;53.186;6.598;2023-01-28T01:15:17;7.50;;;5.32;;
52978;SDS011;63430;53.186;6.598;2023-01-28T01:17:21;6.28;;;5.40;;
52978;SDS011;63430;53.186;6.598;2023-01-28T01:19:24;6.07;;;5.47;;
52978;SDS011;63430;53.186;6.598;2023-01-28T01:23:32;5.75;;;4.55;;
52978;SDS011;63430;53.186;6.598;2023-01-28T01:25:38;4.53;;;4.13;;
52978;SDS011;63430;53.186;6.598;2023-01-28T01:27:41;5.07;;;4.10;;
52978;SDS011;63430;53.186;6.598;2023-01-28T01:29:49;5.05;;;4.20;;
52978;SDS011;63430;53.186;6.598;2023-01-28T01:31:51;6.18;;;4.40;;
52978;SDS011;63430;53.186;6.598;2023-01-28T01:33:54;5.65;;;4.38;;
52978;SDS011;63430;53.186;6.598;2023-01-28T01:35:57;4.80;;;4.35;;
52978;SDS011;63430;53.186;6.598;2023-01-28T01:38:01;5.45;;;4.57;;
52978;SDS011;63430;53.186;6.598;2023-01-28T01:40:04;6.18;;;4.82;;
52978;SDS011;63430;53.186;6.598;2023-01-28T01:46:47;5.38;;;4.25;;
52978;SDS011;63430;53.186;6.598;2023-01-28T01:48:52;4.90;;;4.40;;
52978;SDS011;63430;53.186;6.598;2023-01-28T01:50:56;6.18;;;4.90;;
52978;SDS011;63430;53.186;6.598;2023-01-28T01:53:03;6.38;;;5.13;;
52978;SDS011;63430;53.186;6.598;2023-01-28T01:55:10;5.07;;;4.57;;
52978;SDS011;63430;53.186;6.598;2023-01-28T01:57:19;4.43;;;4.03;;
52978;SDS011;63430;53.186;6.598;2023-01-28T01:59:26;4.30;;;3.90;;
52978;SDS011;63430;53.186;6.598;2023-01-28T02:01:31;4.63;;;4.07;;
52978;SDS011;63430;53.186;6.598;2023-01-28T02:03:37;4.30;;;3.83;;
52978;SDS011;63430;53.186;6.598;2023-01-28T02:05:47;10.07;;;4.55;;
52978;SDS011;63430;53.186;6.598;2023-01-28T02:07:51;4.97;;;4.18;;
52978;SDS011;63430;53.186;6.598;2023-01-28T02:09:56;5.28;;;4.25;;
52978;SDS011;63430;53.186;6.598;2023-01-28T02:12:00;4.95;;;3.85;;
52978;SDS011;63430;53.186;6.598;2023-01-28T02:14:09;4.20;;;3.80;;
52978;SDS011;63430;53.186;6.598;2023-01-28T02:16:22;4.35;;;3.85;;
52978;SDS011;63430;53.186;6.598;2023-01-28T02:18:26;4.85;;;4.28;;
52978;SDS011;63430;53.186;6.598;2023-01-28T02:20:30;4.28;;;3.70;;
52978;SDS011;63430;53.186;6.598;2023-01-28T02:25:39;3.97;;;3.60;;
52978;SDS011;63430;53.186;6.598;2023-01-28T02:28:11;3.65;;;3.30;;
52978;SDS011;63430;53.186;6.598;2023-01-28T02:30:24;3.83;;;3.47;;
52978;SDS011;63430;53.186;6.598;2023-01-28T02:32:32;4.57;;;3.97;;
52978;SDS011;63430;53.186;6.598;2023-01-28T02:34:42;4.55;;;4.15;;
52978;SDS011;63430;53.186;6.598;2023-01-28T02:36:49;5.30;;;4.80;;
52978;SDS011;63430;53.186;6.598;2023-01-28T02:38:57;4.07;;;3.55;;
52978;SDS011;63430;53.186;6.598;2023-01-28T02:41:08;5.00;;;4.20;;
52978;SDS011;63430;53.186;6.598;2023-01-28T02:43:19;5.07;;;4.20;;
52978;SDS011;63430;53.186;6.598;2023-01-28T02:45:32;10.80;;;4.65;;
52978;SDS011;63430;53.186;6.598;2023-01-28T02:47:54;4.13;;;3.80;;
52978;SDS011;63430;53.186;6.598;2023-01-28T02:50:00;4.65;;;4.03;;
52978;SDS011;63430;53.186;6.598;2023-01-28T02:52:11;5.35;;;4.05;;
52978;SDS011;63430;53.186;6.598;2023-01-28T02:54:22;4.25;;;3.85;;
52978;SDS011;63430;53.186;6.598;2023-01-28T02:56:36;5.03;;;3.83;;
52978;SDS011;63430;53.186;6.598;2023-01-28T02:58:50;4.28;;;3.88;;
52978;SDS011;63430;53.186;6.598;2023-01-28T03:01:04;4.80;;;4.22;;
52978;SDS011;63430;53.186;6.598;2023-01-28T03:03:14;4.00;;;3.60;;
52978;SDS011;63430;53.186;6.598;2023-01-28T03:05:22;5.32;;;3.70;;
52978;SDS011;63430;53.186;6.598;2023-01-28T03:07:30;3.85;;;3.45;;
52978;SDS011;63430;53.186;6.598;2023-01-28T03:09:35;5.40;;;3.72;;
52978;SDS011;63430;53.186;6.598;2023-01-28T03:14:04;4.38;;;3.97;;
52978;SDS011;63430;53.186;6.598;2023-01-28T03:16:26;4.60;;;4.03;;
52978;SDS011;63430;53.186;6.598;2023-01-28T03:18:50;4.35;;;3.95;;
52978;SDS011;63430;53.186;6.598;2023-01-28T03:21:12;4.63;;;4.13;;
52978;SDS011;63430;53.186;6.598;2023-01-28T03:23:37;4.60;;;4.20;;
52978;SDS011;63430;53.186;6.598;2023-01-28T03:26:06;5.93;;;5.00;;
52978;SDS011;63430;53.186;6.598;2023-01-28T03:28:30;4.30;;;3.78;;
52978;SDS011;63430;53.186;6.598;2023-01-28T03:30:58;7.93;;;4.25;;
52978;SDS011;63430;53.186;6.598;2023-01-28T03:33:28;3.83;;;3.47;;
52978;SDS011;63430;53.186;6.598;2023-01-28T03:35:51;5.13;;;4.30;;
52978;SDS011;63430;53.186;6.598;2023-01-28T03:38:12;4.25;;;3.85;;
52978;SDS011;63430;53.186;6.598;2023-01-28T03:40:21;4.63;;;4.18;;
52978;SDS011;63430;53.186;6.598;2023-01-28T03:42:24;4.85;;;4.35;;
52978;SDS011;63430;53.186;6.598;2023-01-28T03:44:32;5.38;;;4.57;;
52978;SDS011;63430;53.186;6.598;2023-01-28T03:46:57;5.05;;;4.55;;
52978;SDS011;63430;53.186;6.598;2023-01-28T03:48:59;6.10;;;5.50;;
52978;SDS011;63430;53.186;6.598;2023-01-28T03:51:02;7.10;;;5.38;;
52978;SDS011;63430;53.186;6.598;2023-01-28T03:53:06;7.90;;;6.03;;
52978;SDS011;63430;53.186;6.598;2023-01-28T03:55:24;5.65;;;5.10;;
52978;SDS011;63430;53.186;6.598;2023-01-28T03:57:27;5.53;;;4.82;;
52978;SDS011;63430;53.186;6.598;2023-01-28T03:59:32;5.13;;;4.63;;
52978;SDS011;63430;53.186;6.598;2023-01-28T04:01:35;5.23;;;4.20;;
52978;SDS011;63430;53.186;6.598;2023-01-28T04:03:40;6.15;;;3.95;;
52978;SDS011;63430;53.186;6.598;2023-01-28T04:05:56;4.97;;;4.47;;
52978;SDS011;63430;53.186;6.598;2023-01-28T04:08:04;4.93;;;4.20;;
52978;SDS011;63430;53.186;6.598;2023-01-28T04:10:25;6.10;;;4.05;;
52978;SDS011;63430;53.186;6.598;2023-01-28T04:12:38;4.20;;;3.83;;
52978;SDS011;63430;53.186;6.598;2023-01-28T04:14:40;4.90;;;4.15;;
52978;SDS011;63430;53.186;6.598;2023-01-28T04:16:47;5.07;;;4.57;;
52978;SDS011;63430;53.186;6.598;2023-01-28T04:18:54;5.05;;;4.55;;
52978;SDS011;63430;53.186;6.598;2023-01-28T04:20:56;4.82;;;3.85;;
52978;SDS011;63430;53.186;6.598;2023-01-28T04:22:59;4.35;;;3.80;;
52978;SDS011;63430;53.186;6.598;2023-01-28T04:25:03;5.28;;;4.30;;
52978;SDS011;63430;53.186;6.598;2023-01-28T04:27:06;5.03;;;4.53;;
52978;SDS011;63430;53.186;6.598;2023-01-28T04:29:09;4.47;;;4.07;;
52978;SDS011;63430;53.186;6.598;2023-01-28T04:31:12;4.93;;;3.87;;
52978;SDS011;63430;53.186;6.598;2023-01-28T04:33:15;4.18;;;3.78;;
52978;SDS011;63430;53.186;6.598;2023-01-28T04:35:35;4.43;;;4.03;;
52978;SDS011;63430;53.186;6.598;2023-01-28T04:37:42;6.47;;;4.70;;
52978;SDS011;63430;53.186;6.598;2023-01-28T04:40:20;5.07;;;4.07;;
52978;SDS011;63430;53.186;6.598;2023-01-28T04:42:28;4.38;;;3.97;;
52978;SDS011;63430;53.186;6.598;2023-01-28T04:44:52;4.35;;;3.95;;
52978;SDS011;63430;53.186;6.598;2023-01-28T04:47:23;6.80;;;4.55;;
52978;SDS011;63430;53.186;6.598;2023-01-28T04:49:38;4.70;;;4.30;;
52978;SDS011;63430;53.186;6.598;2023-01-28T04:52:09;4.90;;;4.40;;
52978;SDS011;63430;53.186;6.598;2023-01-28T04:54:34;5.93;;;4.80;;
52978;SDS011;63430;53.186;6.598;2023-01-28T04:56:38;5.30;;;4.80;;
52978;SDS011;63430;53.186;6.598;2023-01-28T04:58:41;6.95;;;4.82;;
52978;SDS011;63430;53.186;6.598;2023-01-28T05:00:50;7.18;;;4.55;;
52978;SDS011;63430;53.186;6.598;2023-01-28T05:02:55;5.07;;;4.50;;
52978;SDS011;63430;53.186;6.598;2023-01-28T05:04:58;5.13;;;4.63;;
52978;SDS011;63430;53.186;6.598;2023-01-28T05:07:22;5.65;;;4.47;;
52978;SDS011;63430;53.186;6.598;2023-01-28T05:09:24;5.03;;;4.53;;
52978;SDS011;63430;53.186;6.598;2023-01-28T05:11:27;8.38;;;4.78;;
52978;SDS011;63430;53.186;6.598;2023-01-28T05:13:34;5.10;;;4.47;;
52978;SDS011;63430;53.186;6.598;2023-01-28T05:15:37;8.75;;;4.63;;
52978;SDS011;63430;53.186;6.598;2023-01-28T05:17:40;5.60;;;4.93;;
52978;SDS011;63430;53.186;6.598;2023-01-28T05:19:46;6.97;;;5.35;;
52978;SDS011;63430;53.186;6.598;2023-01-28T05:21:54;6.85;;;5.10;;
52978;SDS011;63430;53.186;6.598;2023-01-28T05:24:14;5.68;;;5.18;;
52978;SDS011;63430;53.186;6.598;2023-01-28T05:26:18;5.90;;;5.40;;
52978;SDS011;63430;53.186;6.598;2023-01-28T05:28:21;7.43;;;5.78;;
52978;SDS011;63430;53.186;6.598;2023-01-28T05:30:23;5.55;;;4.75;;
52978;SDS011;63430;53.186;6.598;2023-01-28T05:32:26;6.15;;;5.55;;
52978;SDS011;63430;53.186;6.598;2023-01-28T05:34:28;6.13;;;5.50;;
52978;SDS011;63430;53.186;6.598;2023-01-28T05:36:33;9.55;;;5.38;;
52978;SDS011;63430;53.186;6.598;2023-01-28T05:38:43;6.05;;;5.45;;
52978;SDS011;63430;53.186;6.598;2023-01-28T05:40:49;6.03;;;4.78;;
52978;SDS011;63430;53.186;6.598;2023-01-28T05:42:51;5.55;;;5.05;;
52978;SDS011;63430;53.186;6.598;2023-01-28T05:45:05;6.85;;;5.60;;
52978;SDS011;63430;53.186;6.598;2023-01-28T05:47:32;5.93;;;5.05;;
52978;SDS011;63430;53.186;6.598;2023-01-28T05:49:58;6.68;;;5.60;;
52978;SDS011;63430;53.186;6.598;2023-01-28T05:52:07;5.18;;;4.50;;
52978;SDS011;63430;53.186;6.598;2023-01-28T05:54:10;7.80;;;5.15;;
52978;SDS011;63430;53.186;6.598;2023-01-28T05:56:15;6.13;;;5.53;;
52978;SDS011;63430;53.186;6.598;2023-01-28T05:58:17;7.20;;;5.55;;
52978;SDS011;63430;53.186;6.598;2023-01-28T06:00:20;6.18;;;5.30;;
52978;SDS011;63430;53.186;6.598;2023-01-28T06:02:23;6.13;;;5.47;;
52978;SDS011;63430;53.186;6.598;2023-01-28T06:04:29;5.40;;;4.90;;
52978;SDS011;63430;53.186;6.598;2023-01-28T06:06:32;8.25;;;5.20;;
52978;SDS011;63430;53.186;6.598;2023-01-28T06:08:37;10.45;;;5.60;;
52978;SDS011;63430;53.186;6.598;2023-01-28T06:10:40;5.20;;;4.68;;
52978;SDS011;63430;53.186;6.598;2023-01-28T06:12:45;5.68;;;5.13;;
52978;SDS011;63430;53.186;6.598;2023-01-28T06:15:11;6.40;;;5.05;;
52978;SDS011;63430;53.186;6.598;2023-01-28T06:17:40;6.65;;;5.82;;
52978;SDS011;63430;53.186;6.598;2023-01-28T06:19:55;7.03;;;5.28;;
52978;SDS011;63430;53.186;6.598;2023-01-28T06:21:58;6.60;;;5.47;;
52978;SDS011;63430;53.186;6.598;2023-01-28T06:24:01;7.35;;;5.63;;
52978;SDS011;63430;53.186;6.598;2023-01-28T06:26:04;7.53;;;5.43;;
52978;SDS011;63430;53.186;6.598;2023-01-28T06:28:11;6.32;;;5.72;;
52978;SDS011;63430;53.186;6.598;2023-01-28T06:30:13;8.18;;;5.90;;
52978;SDS011;63430;53.186;6.598;2023-01-28T06:32:17;7.00;;;5.28;;
52978;SDS011;63430;53.186;6.598;2023-01-28T06:34:19;7.43;;;5.60;;
52978;SDS011;63430;53.186;6.598;2023-01-28T06:36:22;7.32;;;5.47;;
52978;SDS011;63430;53.186;6.598;2023-01-28T06:38:24;9.48;;;6.35;;
52978;SDS011;63430;53.186;6.598;2023-01-28T06:40:27;7.38;;;6.00;;
52978;SDS011;63430;53.186;6.598;2023-01-28T06:42:29;7.78;;;5.60;;
52978;SDS011;63430;53.186;6.598;2023-01-28T06:44:34;7.60;;;5.90;;
52978;SDS011;63430;53.186;6.598;2023-01-28T06:46:38;9.38;;;5.88;;
52978;SDS011;63430;53.186;6.598;2023-01-28T06:48:41;7.10;;;5.88;;
52978;SDS011;63430;53.186;6.598;2023-01-28T06:50:45;7.50;;;6.25;;
52978;SDS011;63430;53.186;6.598;2023-01-28T06:52:48;7.70;;;6.25;;
52978;SDS011;63430;53.186;6.598;2023-01-28T06:54:50;7.18;;;5.97;;
52978;SDS011;63430;53.186;6.598;2023-01-28T06:56:52;7.38;;;6.13;;
52978;SDS011;63430;53.186;6.598;2023-01-28T06:58:55;7.43;;;6.18;;
52978;SDS011;63430;53.186;6.598;2023-01-28T07:01:00;6.72;;;5.82;;
52978;SDS011;63430;53.186;6.598;2023-01-28T07:03:02;8.18;;;6.20;;
52978;SDS011;63430;53.186;6.598;2023-01-28T07:05:05;10.32;;;6.90;;
52978;SDS011;63430;53.186;6.598;2023-01-28T07:07:08;7.00;;;6.30;;
52978;SDS011;63430;53.186;6.598;2023-01-28T07:09:10;7.90;;;6.15;;
52978;SDS011;63430;53.186;6.598;2023-01-28T07:11:13;9.73;;;6.78;;
52978;SDS011;63430;53.186;6.598;2023-01-28T07:13:15;10.48;;;6.32;;
52978;SDS011;63430;53.186;6.598;2023-01-28T07:15:18;7.97;;;6.43;;
52978;SDS011;63430;53.186;6.598;2023-01-28T07:17:23;9.15;;;7.05;;
52978;SDS011;63430;53.186;6.598;2023-01-28T07:19:25;8.02;;;6.20;;
52978;SDS011;63430;53.186;6.598;2023-01-28T07:21:31;6.72;;;6.00;;
52978;SDS011;63430;53.186;6.598;2023-01-28T07:23:34;8.27;;;6.07;;
52978;SDS011;63430;53.186;6.598;2023-01-28T07:25:36;6.97;;;6.15;;
52978;SDS011;63430;53.186;6.598;2023-01-28T07:27:44;7.45;;;6.25;;
52978;SDS011;63430;53.186;6.598;2023-01-28T07:29:47;7.25;;;6.22;;
52978;SDS011;63430;53.186;6.598;2023-01-28T07:31:50;9.55;;;5.90;;
52978;SDS011;63430;53.186;6.598;2023-01-28T07:33:55;7.40;;;6.15;;
52978;SDS011;63430;53.186;6.598;2023-01-28T07:35:58;7.15;;;6.22;;
52978;SDS011;63430;53.186;6.598;2023-01-28T07:38:00;8.43;;;6.28;;
52978;SDS011;63430;53.186;6.598;2023-01-28T07:40:03;7.75;;;6.80;;
52978;SDS011;63430;53.186;6.598;2023-01-28T07:42:06;7.70;;;6.32;;
52978;SDS011;63430;53.186;6.598;2023-01-28T07:44:19;9.23;;;6.65;;
52978;SDS011;63430;53.186;6.598;2023-01-28T07:46:21;7.57;;;6.47;;
52978;SDS011;63430;53.186;6.598;2023-01-28T07:48:24;8.63;;;6.68;;
52978;SDS011;63430;53.186;6.598;2023-01-28T07:50:29;7.50;;;6.75;;
52978;SDS011;63430;53.186;6.598;2023-01-28T07:52:35;7.82;;;6.70;;
52978;SDS011;63430;53.186;6.598;2023-01-28T07:54:44;10.57;;;7.10;;
52978;SDS011;63430;53.186;6.598;2023-01-28T07:56:47;11.02;;;6.43;;
52978;SDS011;63430;53.186;6.598;2023-01-28T07:58:49;7.88;;;6.45;;
52978;SDS011;63430;53.186;6.598;2023-01-28T08:00:55;7.80;;;6.45;;
52978;SDS011;63430;53.186;6.598;2023-01-28T08:02:58;7.15;;;5.85;;
52978;SDS011;63430;53.186;6.598;2023-01-28T08:07:07;7.53;;;6.32;;
52978;SDS011;63430;53.186;6.598;2023-01-28T08:09:10;7.43;;;6.25;;
52978;SDS011;63430;53.186;6.598;2023-01-28T08:11:12;6.65;;;5.95;;
52978;SDS011;63430;53.186;6.598;2023-01-28T08:13:15;8.95;;;6.25;;
52978;SDS011;63430;53.186;6.598;2023-01-28T08:15:18;7.32;;;5.85;;
52978;SDS011;63430;53.186;6.598;2023-01-28T08:17:21;7.40;;;6.28;;
52978;SDS011;63430;53.186;6.598;2023-01-28T08:19:24;7.95;;;6.55;;
52978;SDS011;63430;53.186;6.598;2023-01-28T08:21:26;7.57;;;5.43;;
52978;SDS011;63430;53.186;6.598;2023-01-28T08:25:35;7.15;;;5.38;;
52978;SDS011;63430;53.186;6.598;2023-01-28T08:27:38;9.10;;;6.38;;
52978;SDS011;63430;53.186;6.598;2023-01-28T08:29:41;8.43;;;5.93;;
52978;SDS011;63430;53.186;6.598;2023-01-28T08:31:44;8.23;;;6.13;;
52978;SDS011;63430;53.186;6.598;2023-01-28T08:33:46;7.75;;;6.72;;
52978;SDS011;63430;53.186;6.598;2023-01-28T08:35:49;7.15;;;6.45;;
52978;SDS011;63430;53.186;6.598;2023-01-28T08:37:51;10.02;;;7.10;;
52978;SDS011;63430;53.186;6.598;2023-01-28T08:39:57;7.07;;;6.30;;
52978;SDS011;63430;53.186;6.598;2023-01-28T08:41:59;10.38;;;7.15;;
52978;SDS011;63430;53.186;6.598;2023-01-28T08:44:02;7.35;;;5.97;;
52978;SDS011;63430;53.186;6.598;2023-01-28T08:46:04;8.43;;;6.03;;
52978;SDS011;63430;53.186;6.598;2023-01-28T08:48:10;9.55;;;5.50;;
52978;SDS011;63430;53.186;6.598;2023-01-28T08:50:15;7.40;;;5.68;;
52978;SDS011;63430;53.186;6.598;2023-01-28T08:52:18;8.50;;;5.72;;
52978;SDS011;63430;53.186;6.598;2023-01-28T08:54:21;7.32;;;6.00;;
52978;SDS011;63430;53.186;6.598;2023-01-28T08:56:26;8.07;;;5.28;;
52978;SDS011;63430;53.186;6.598;2023-01-28T08:58:29;7.90;;;6.20;;
52978;SDS011;63430;53.186;6.598;2023-01-28T09:00:31;6.40;;;5.80;;
52978;SDS011;63430;53.186;6.598;2023-01-28T09:02:34;11.02;;;5.82;;
52978;SDS011;63430;53.186;6.598;2023-01-28T09:04:37;6.53;;;5.70;;
52978;SDS011;63430;53.186;6.598;2023-01-28T09:06:39;8.98;;;5.55;;
52978;SDS011;63430;53.186;6.598;2023-01-28T09:08:41;8.73;;;6.00;;
52978;SDS011;63430;53.186;6.598;2023-01-28T09:10:44;7.00;;;5.70;;
52978;SDS011;63430;53.186;6.598;2023-01-28T09:12:49;7.13;;;5.90;;
52978;SDS011;63430;53.186;6.598;2023-01-28T09:14:51;6.10;;;5.28;;
52978;SDS011;63430;53.186;6.598;2023-01-28T09:16:54;6.30;;;5.55;;
52978;SDS011;63430;53.186;6.598;2023-01-28T09:18:56;5.85;;;4.93;;
52978;SDS011;63430;53.186;6.598;2023-01-28T09:20:59;7.90;;;5.80;;
52978;SDS011;63430;53.186;6.598;2023-01-28T09:23:08;6.18;;;5.57;;
52978;SDS011;63430;53.186;6.598;2023-01-28T09:25:11;6.60;;;5.72;;
52978;SDS011;63430;53.186;6.598;2023-01-28T09:27:14;7.50;;;5.80;;
52978;SDS011;63430;53.186;6.598;2023-01-28T09:29:19;7.30;;;5.80;;
52978;SDS011;63430;53.186;6.598;2023-01-28T09:31:22;7.07;;;5.82;;
52978;SDS011;63430;53.186;6.598;2023-01-28T09:33:25;9.73;;;5.10;;
52978;SDS011;63430;53.186;6.598;2023-01-28T09:35:27;6.63;;;5.18;;
52978;SDS011;63430;53.186;6.598;2023-01-28T09:37:29;6.05;;;5.18;;
52978;SDS011;63430;53.186;6.598;2023-01-28T09:39:32;6.85;;;5.47;;
52978;SDS011;63430;53.186;6.598;2023-01-28T09:41:37;7.40;;;5.15;;
52978;SDS011;63430;53.186;6.598;2023-01-28T09:43:53;8.40;;;5.70;;
52978;SDS011;63430;53.186;6.598;2023-01-28T09:46:07;6.25;;;5.28;;
52978;SDS011;63430;53.186;6.598;2023-01-28T09:48:15;8.05;;;5.25;;
52978;SDS011;63430;53.186;6.598;2023-01-28T09:50:24;8.02;;;5.72;;
52978;SDS011;63430;53.186;6.598;2023-01-28T09:52:33;5.70;;;4.88;;
52978;SDS011;63430;53.186;6.598;2023-01-28T09:54:37;5.65;;;4.75;;
52978;SDS011;63430;53.186;6.598;2023-01-28T09:56:45;6.60;;;5.32;;
52978;SDS011;63430;53.186;6.598;2023-01-28T09:58:52;7.05;;;5.38;;
52978;SDS011;63430;53.186;6.598;2023-01-28T10:00:56;6.75;;;5.32;;
52978;SDS011;63430;53.186;6.598;2023-01-28T10:05:45;7.20;;;5.35;;
52978;SDS011;63430;53.186;6.598;2023-01-28T10:08:00;5.85;;;5.25;;
52978;SDS011;63430;53.186;6.598;2023-01-28T10:10:12;6.63;;;5.47;;
52978;SDS011;63430;53.186;6.598;2023-01-28T10:12:31;6.03;;;5.35;;
52978;SDS011;63430;53.186;6.598;2023-01-28T10:14:49;6.03;;;4.68;;
52978;SDS011;63430;53.186;6.598;2023-01-28T10:16:59;6.03;;;5.07;;
52978;SDS011;63430;53.186;6.598;2023-01-28T10:19:09;5.15;;;4.65;;
52978;SDS011;63430;53.186;6.598;2023-01-28T10:21:21;6.53;;;5.00;;
52978;SDS011;63430;53.186;6.598;2023-01-28T10:23:36;5.70;;;4.93;;
52978;SDS011;63430;53.186;6.598;2023-01-28T10:25:55;6.55;;;5.05;;
52978;SDS011;63430;53.186;6.598;2023-01-28T10:28:01;5.80;;;5.03;;
52978;SDS011;63430;53.186;6.598;2023-01-28T10:30:11;13.32;;;5.47;;
52978;SDS011;63430;53.186;6.598;2023-01-28T10:34:23;7.65;;;5.75;;
52978;SDS011;63430;53.186;6.598;2023-01-28T10:36:29;6.32;;;5.38;;
52978;SDS011;63430;53.186;6.598;2023-01-28T10:38:31;7.32;;;5.68;;
52978;SDS011;63430;53.186;6.598;2023-01-28T10:40:34;9.98;;;6.20;;
52978;SDS011;63430;53.186;6.598;2023-01-28T10:42:37;7.53;;;5.30;;
52978;SDS011;63430;53.186;6.598;2023-01-28T10:44:40;6.97;;;5.43;;
52978;SDS011;63430;53.186;6.598;2023-01-28T10:46:45;7.95;;;5.50;;
52978;SDS011;63430;53.186;6.598;2023-01-28T10:48:54;9.32;;;5.65;;
52978;SDS011;63430;53.186;6.598;2023-01-28T10:51:00;7.13;;;5.53;;
52978;SDS011;63430;53.186;6.598;2023-01-28T10:53:09;8.65;;;6.03;;
52978;SDS011;63430;53.186;6.598;2023-01-28T10:55:13;7.13;;;5.72;;
52978;SDS011;63430;53.186;6.598;2023-01-28T10:57:16;6.80;;;5.45;;
52978;SDS011;63430;53.186;6.598;2023-01-28T10:59:24;6.18;;;5.03;;
52978;SDS011;63430;53.186;6.598;2023-01-28T11:01:41;7.05;;;5.43;;
52978;SDS011;63430;53.186;6.598;2023-01-28T11:03:52;6.43;;;5.25;;
52978;SDS011;63430;53.186;6.598;2023-01-28T11:05:57;6.68;;;5.00;;
52978;SDS011;63430;53.186;6.598;2023-01-28T11:08:04;5.60;;;4.67;;
52978;SDS011;63430;53.186;6.598;2023-01-28T11:10:37;5.53;;;4.93;;
52978;SDS011;63430;53.186;6.598;2023-01-28T11:12:41;6.68;;;5.22;;
52978;SDS011;63430;53.186;6.598;2023-01-28T11:14:48;5.80;;;4.45;;
52978;SDS011;63430;53.186;6.598;2023-01-28T11:16:52;6.20;;;4.90;;
52978;SDS011;63430;53.186;6.598;2023-01-28T11:18:59;7.57;;;5.35;;
52978;SDS011;63430;53.186;6.598;2023-01-28T11:21:06;6.82;;;5.20;;
52978;SDS011;63430;53.186;6.598;2023-01-28T11:23:20;7.80;;;4.72;;
52978;SDS011;63430;53.186;6.598;2023-01-28T11:25:28;6.80;;;5.47;;
52978;SDS011;63430;53.186;6.598;2023-01-28T11:27:33;7.50;;;5.53;;
52978;SDS011;63430;53.186;6.598;2023-01-28T11:29:37;6.88;;;5.40;;
52978;SDS011;63430;53.186;6.598;2023-01-28T11:31:42;7.03;;;4.95;;
52978;SDS011;63430;53.186;6.598;2023-01-28T11:33:47;6.40;;;4.95;;
52978;SDS011;63430;53.186;6.598;2023-01-28T11:35:51;7.28;;;5.40;;
52978;SDS011;63430;53.186;6.598;2023-01-28T11:37:55;6.55;;;4.82;;
52978;SDS011;63430;53.186;6.598;2023-01-28T11:40:01;8.02;;;5.30;;
52978;SDS011;63430;53.186;6.598;2023-01-28T11:42:19;7.50;;;4.90;;
52978;SDS011;63430;53.186;6.598;2023-01-28T11:44:23;5.78;;;4.90;;
52978;SDS011;63430;53.186;6.598;2023-01-28T11:46:37;6.72;;;4.85;;
52978;SDS011;63430;53.186;6.598;2023-01-28T11:48:53;8.18;;;5.75;;
52978;SDS011;63430;53.186;6.598;2023-01-28T11:51:07;6.22;;;5.35;;
52978;SDS011;63430;53.186;6.598;2023-01-28T11:53:34;6.72;;;5.57;;
52978;SDS011;63430;53.186;6.598;2023-01-28T11:55:57;5.68;;;4.80;;
52978;SDS011;63430;53.186;6.598;2023-01-28T11:58:14;6.97;;;5.53;;
52978;SDS011;63430;53.186;6.598;2023-01-28T12:02:47;6.80;;;4.70;;
52978;SDS011;63430;53.186;6.598;2023-01-28T12:04:57;11.35;;;5.00;;
52978;SDS011;63430;53.186;6.598;2023-01-28T12:07:22;6.15;;;5.25;;
52978;SDS011;63430;53.186;6.598;2023-01-28T12:09:38;6.70;;;5.20;;
52978;SDS011;63430;53.186;6.598;2023-01-28T12:11:51;8.77;;;5.25;;
52978;SDS011;63430;53.186;6.598;2023-01-28T12:14:19;6.45;;;5.32;;
52978;SDS011;63430;53.186;6.598;2023-01-28T12:16:32;7.10;;;5.07;;
52978;SDS011;63430;53.186;6.598;2023-01-28T12:21:09;8.02;;;5.57;;
52978;SDS011;63430;53.186;6.598;2023-01-28T12:23:27;8.15;;;5.38;;
52978;SDS011;63430;53.186;6.598;2023-01-28T12:25:42;8.65;;;5.68;;
52978;SDS011;63430;53.186;6.598;2023-01-28T12:27:57;6.38;;;5.68;;
52978;SDS011;63430;53.186;6.598;2023-01-28T12:30:12;9.07;;;6.25;;
52978;SDS011;63430;53.186;6.598;2023-01-28T12:32:30;7.00;;;5.53;;
52978;SDS011;63430;53.186;6.598;2023-01-28T12:34:47;9.13;;;5.40;;
52978;SDS011;63430;53.186;6.598;2023-01-28T12:37:03;9.07;;;6.50;;
52978;SDS011;63430;53.186;6.598;2023-01-28T12:39:16;9.65;;;5.80;;
52978;SDS011;63430;53.186;6.598;2023-01-28T12:41:31;10.70;;;6.20;;
52978;SDS011;63430;53.186;6.598;2023-01-28T12:43:40;7.30;;;5.53;;
52978;SDS011;63430;53.186;6.598;2023-01-28T12:45:54;8.00;;;5.63;;
52978;SDS011;63430;53.186;6.598;2023-01-28T12:48:03;6.22;;;4.70;;
52978;SDS011;63430;53.186;6.598;2023-01-28T12:50:11;9.45;;;5.43;;
52978;SDS011;63430;53.186;6.598;2023-01-28T12:52:18;8.32;;;5.10;;
52978;SDS011;63430;53.186;6.598;2023-01-28T12:54:28;6.22;;;5.03;;
52978;SDS011;63430;53.186;6.598;2023-01-28T12:56:36;7.47;;;5.55;;
52978;SDS011;63430;53.186;6.598;2023-01-28T12:58:44;8.10;;;5.25;;
52978;SDS011;63430;53.186;6.598;2023-01-28T13:00:53;8.48;;;5.70;;
52978;SDS011;63430;53.186;6.598;2023-01-28T13:03:04;7.00;;;5.15;;
52978;SDS011;63430;53.186;6.598;2023-01-28T13:05:13;11.07;;;5.82;;
52978;SDS011;63430;53.186;6.598;2023-01-28T13:07:19;8.43;;;5.63;;
52978;SDS011;63430;53.186;6.598;2023-01-28T13:09:25;7.10;;;5.57;;
52978;SDS011;63430;53.186;6.598;2023-01-28T13:11:32;8.80;;;5.47;;
52978;SDS011;63430;53.186;6.598;2023-01-28T13:13:37;5.20;;;4.70;;
52978;SDS011;63430;53.186;6.598;2023-01-28T13:15:43;8.15;;;5.65;;